createdAt,value
2018-11-21T00:02:39.935Z,7.10
2018-11-21T00:08:45.558Z,7.10
2018-11-21T00:14:46.089Z,7.10
2018-11-21T00:20:46.544Z,7.10
2018-11-21T00:27:00.367Z,7.30
2018-11-21T00:33:13.051Z,7.10
2018-11-21T00:39:07.551Z,7.00
2018-11-21T00:44:49.952Z,7.00
2018-11-21T00:50:45.473Z,6.80
2018-11-21T00:57:01.195Z,6.40
2018-11-21T01:03:05.665Z,6.40
2018-11-21T01:09:06.465Z,6.40
2018-11-21T01:15:08.963Z,6.50
2018-11-21T01:20:54.693Z,6.50
2018-11-21T01:26:55.961Z,6.20
2018-11-21T01:32:58.495Z,6.50
2018-11-21T01:39:00.133Z,6.80
2018-11-21T01:44:41.546Z,6.90
2018-11-21T01:50:43.050Z,6.90
2018-11-21T01:56:42.652Z,7.10
2018-11-21T02:02:45.178Z,7.10
2018-11-21T02:08:58.233Z,7.10
2018-11-21T02:15:14.660Z,7.10
2018-11-21T02:21:28.361Z,6.70
2018-11-21T02:27:46.140Z,6.70
2018-11-21T02:34:00.747Z,6.60
2018-11-21T02:40:02.391Z,6.70
2018-11-21T02:45:53.866Z,6.70
2018-11-21T02:51:58.790Z,6.40
2018-11-21T02:57:58.870Z,6.50
2018-11-21T03:04:03.408Z,6.80
2018-11-21T03:09:45.075Z,6.60
2018-11-21T03:16:03.797Z,6.90
2018-11-21T03:22:17.864Z,6.80
2018-11-21T03:28:35.925Z,6.90
2018-11-21T03:34:49.893Z,6.80
2018-11-21T03:40:45.428Z,7.00
2018-11-21T03:46:33.912Z,7.10
2018-11-21T03:52:47.555Z,7.20
2018-11-21T03:59:00.321Z,7.30
2018-11-21T04:05:08.096Z,7.30
2018-11-21T04:11:08.514Z,7.30
2018-11-21T04:17:09.022Z,7.60
2018-11-21T04:23:07.633Z,7.70
2018-11-21T04:29:11.148Z,7.30
2018-11-21T04:35:11.803Z,7.40
2018-11-21T04:41:12.375Z,7.30
2018-11-21T04:47:00.965Z,7.30
2018-11-21T05:05:06.647Z,7.30
2018-11-21T05:10:49.151Z,7.20
2018-11-21T05:16:49.533Z,7.20
2018-11-21T05:22:54.214Z,7.00
2018-11-21T05:28:57.777Z,7.10
2018-11-21T05:40:58.881Z,7.30
2018-11-21T05:46:35.251Z,7.10
2018-11-21T05:52:37.838Z,7.10
2018-11-21T06:09:58.924Z,7.20
2018-11-21T06:22:02.276Z,7.40
2018-11-21T06:28:03.062Z,7.30
2018-11-21T06:34:02.402Z,7.30
2018-11-21T06:46:05.564Z,7.20
2018-11-21T06:52:08.157Z,7.20
2018-11-21T06:58:08.806Z,7.10
2018-11-21T07:04:09.359Z,7.00
2018-11-21T07:10:17.325Z,7.00
2018-11-21T07:16:17.705Z,7.20
2018-11-21T07:22:19.092Z,7.30
2018-11-21T07:28:21.877Z,7.30
2018-11-21T07:46:10.292Z,7.30
2018-11-21T07:51:48.552Z,7.40
2018-11-21T07:57:52.215Z,7.30
2018-11-21T08:03:54.777Z,7.20
2018-11-21T08:19:49.287Z,7.50
2018-11-21T08:38:07.125Z,7.50
2018-11-21T08:44:09.714Z,7.50
2018-11-21T08:49:53.035Z,7.60
2018-11-21T08:55:41.561Z,7.50
2018-11-21T09:01:24.018Z,7.70
2018-11-21T09:07:26.925Z,8.00
2018-11-21T09:13:11.835Z,7.90
2018-11-21T09:19:13.505Z,7.70
2018-11-21T09:25:15.132Z,7.60
2018-11-21T09:31:00.478Z,7.70
2018-11-21T09:36:42.914Z,7.50
2018-11-21T09:42:46.533Z,7.50
2018-11-21T09:48:47.089Z,7.10
2018-11-21T10:00:46.228Z,7.40
2018-11-21T10:06:46.799Z,7.30
2018-11-21T10:12:50.403Z,7.10
2018-11-21T10:18:56.705Z,7.10
2018-11-21T10:25:10.733Z,7.20
2018-11-21T10:37:41.372Z,7.20
2018-11-21T10:43:53.803Z,7.20
2018-11-21T10:49:55.431Z,7.30
2018-11-21T10:55:44.874Z,6.90
2018-11-21T11:02:03.660Z,6.80
2018-11-21T11:08:41.582Z,7.10
2018-11-21T11:15:08.492Z,7.00
2018-11-21T11:21:51.534Z,7.20
2018-11-21T11:34:19.531Z,7.30
2018-11-21T11:40:47.744Z,7.20
2018-11-21T11:47:12.838Z,7.40
2018-11-21T11:53:12.023Z,7.10
2018-11-21T11:59:11.650Z,7.40
2018-11-21T12:05:47.538Z,7.40
2018-11-21T12:12:18.544Z,7.30
2018-11-21T12:18:48.322Z,6.90
2018-11-21T12:25:23.243Z,7.10
2018-11-21T12:31:56.151Z,7.20
2018-11-21T12:44:54.831Z,7.20
2018-11-21T12:51:08.392Z,7.00
2018-11-21T13:01:12.524Z,7.00
2018-11-21T13:07:00.958Z,7.00
2018-11-21T13:13:01.549Z,6.90
2018-11-21T13:19:22.228Z,6.90
2018-11-21T13:25:44.075Z,7.00
2018-11-21T13:32:22.600Z,7.00
2018-11-21T13:38:45.749Z,6.60
2018-11-21T13:51:35.369Z,6.40
2018-11-21T13:57:38.970Z,6.40
2018-11-21T14:03:40.418Z,6.60
2018-11-21T14:09:42.164Z,6.50
2018-11-21T14:15:46.646Z,6.20
2018-11-21T14:21:29.136Z,6.20
2018-11-21T14:27:30.709Z,6.20
2018-11-21T14:33:32.336Z,6.00
2018-11-21T14:39:36.040Z,5.80
2018-11-21T14:45:20.350Z,5.60
2018-11-21T14:51:33.779Z,5.50
2018-11-21T14:57:46.742Z,5.70
2018-11-21T15:03:37.954Z,5.70
2018-11-21T15:15:53.501Z,5.90
2018-11-21T15:21:54.051Z,5.80
2018-11-21T15:27:56.666Z,5.60
2018-11-21T15:33:57.317Z,5.50
2018-11-21T15:39:59.826Z,5.70
2018-11-21T15:46:02.405Z,5.40
2018-11-21T15:52:06.099Z,5.60
2018-11-21T15:58:07.681Z,5.60
2018-11-21T16:03:58.077Z,5.50
2018-11-21T16:10:01.658Z,5.60
2018-11-21T16:16:03.397Z,5.80
2018-11-21T16:22:07.849Z,5.70
2018-11-21T16:28:08.596Z,5.40
2018-11-21T16:34:16.058Z,5.30
2018-11-21T16:40:30.766Z,5.60
2018-11-21T16:46:44.474Z,5.80
2018-11-21T16:52:57.159Z,5.90
2018-11-21T17:02:37.732Z,5.80
2018-11-21T17:08:40.229Z,5.60
2018-11-21T17:14:53.188Z,5.60
2018-11-21T17:21:08.976Z,5.60
2018-11-21T17:27:23.684Z,5.60
2018-11-21T17:33:18.455Z,5.80
2018-11-21T17:39:19.706Z,5.60
2018-11-21T17:45:21.287Z,5.40
2018-11-21T17:51:26.593Z,5.10
2018-11-21T17:57:27.976Z,5.10
2018-11-21T18:03:03.094Z,5.40
2018-11-21T18:09:04.377Z,5.40
2018-11-21T18:15:06.041Z,5.30
2018-11-21T18:21:06.579Z,5.40
2018-11-21T18:27:11.066Z,5.50
2018-11-21T18:33:14.736Z,5.70
2018-11-21T18:39:15.619Z,5.60
2018-11-21T18:45:19.788Z,5.50
2018-11-21T18:51:33.345Z,5.60
2018-11-21T18:58:42.868Z,5.40
2018-11-21T19:04:32.328Z,5.10
2018-11-21T19:16:39.831Z,5.10
2018-11-21T19:22:39.461Z,4.90
2018-11-21T19:28:43.631Z,4.90
2018-11-21T19:34:47.309Z,5.00
2018-11-21T19:40:48.190Z,4.90
2018-11-21T19:46:51.469Z,5.10
2018-11-21T19:53:06.178Z,5.00
2018-11-21T19:59:20.264Z,5.10
2018-11-21T20:05:11.699Z,4.90
2018-11-21T20:11:24.464Z,5.10
2018-11-21T20:17:37.611Z,4.70
2018-11-21T20:23:52.775Z,4.70
2018-11-21T20:29:54.716Z,4.80
2018-11-21T20:35:54.525Z,4.60
2018-11-21T20:41:54.219Z,4.30
2018-11-21T20:47:55.748Z,4.30
2018-11-21T20:53:57.104Z,4.30
2018-11-21T21:00:17.090Z,4.70
2018-11-21T21:06:16.649Z,4.30
2018-11-21T21:12:30.346Z,4.60
2018-11-21T21:24:34.516Z,4.60
2018-11-21T21:30:35.850Z,4.40
2018-11-21T21:36:18.489Z,4.50
2018-11-21T21:42:21.079Z,4.50
2018-11-21T21:54:21.208Z,4.60
2018-11-21T22:00:22.791Z,4.40
2018-11-21T22:12:00.067Z,4.90
2018-11-21T22:24:06.955Z,4.80
2018-11-21T22:30:07.461Z,4.90
2018-11-21T22:35:58.309Z,4.90
2018-11-21T22:47:56.042Z,5.10
2018-11-21T22:54:00.370Z,5.20
2018-11-21T22:59:43.182Z,5.10
2018-11-21T23:05:37.747Z,5.10
2018-11-21T23:11:48.287Z,4.90
2018-11-21T23:18:01.918Z,4.80
2018-11-21T23:30:28.376Z,4.80
2018-11-21T23:36:30.896Z,4.80
2018-11-21T23:42:32.546Z,4.50
2018-11-21T23:48:33.047Z,4.70
2018-11-21T23:54:33.922Z,4.50
